Airport ID:KRTS
Update Time (UTC):23 FEB 18 23:40
Wind Speed (Knots):CALM
Wind Direction (Magnetic):
Temperature (°C):-4
Dew Point (°C):-13
Humidity (%):50
Altimeter (inHg):30.27
Density Altitude (Feet):
Visibility (Miles):10
Clouds (Hundreds of feet):CLR
Present Weather:NO PRECIPITATION
METAR:METAR KRTS 232340Z AUTO 00000KT 10SM CLR M04/M13 A3027 RMK AO2 P0002

The data displayed is for advisory purposes only and is not to be used for flight planning or operations.

This page is not automatically refreshed. Reload the page to see current data.